sensor_id;sensor_type;location;lat;lon;timestamp;temperature;humidity
34837;DHT22;21053;50.848;4.652;2023-09-18T00:00:23;20.40;99.90
34837;DHT22;21053;50.848;4.652;2023-09-18T00:02:49;20.40;99.90
34837;DHT22;21053;50.848;4.652;2023-09-18T00:05:15;20.30;99.90
34837;DHT22;21053;50.848;4.652;2023-09-18T00:07:42;20.30;99.90
34837;DHT22;21053;50.848;4.652;2023-09-18T00:10:11;20.40;99.90
34837;DHT22;21053;50.848;4.652;2023-09-18T00:12:40;20.40;99.90
34837;DHT22;21053;50.848;4.652;2023-09-18T00:15:12;20.50;99.90
34837;DHT22;21053;50.848;4.652;2023-09-18T00:17:37;20.50;99.90
34837;DHT22;21053;50.848;4.652;2023-09-18T00:20:06;20.50;99.90
34837;DHT22;21053;50.848;4.652;2023-09-18T00:22:33;20.40;99.90
34837;DHT22;21053;50.848;4.652;2023-09-18T00:25:00;20.20;99.90
34837;DHT22;21053;50.848;4.652;2023-09-18T00:27:29;20.00;99.90
34837;DHT22;21053;50.848;4.652;2023-09-18T00:29:55;20.00;99.90
34837;DHT22;21053;50.848;4.652;2023-09-18T00:32:23;20.00;99.90
34837;DHT22;21053;50.848;4.652;2023-09-18T00:34:50;20.10;99.90
34837;DHT22;21053;50.848;4.652;2023-09-18T00:37:19;20.20;99.90
34837;DHT22;21053;50.848;4.652;2023-09-18T00:39:44;20.30;99.90
34837;DHT22;21053;50.848;4.652;2023-09-18T00:42:10;20.40;99.90
34837;DHT22;21053;50.848;4.652;2023-09-18T00:44:40;20.40;99.90
34837;DHT22;21053;50.848;4.652;2023-09-18T00:47:10;20.60;99.90
34837;DHT22;21053;50.848;4.652;2023-09-18T00:49:38;20.40;99.90
34837;DHT22;21053;50.848;4.652;2023-09-18T00:52:08;20.40;99.90
34837;DHT22;21053;50.848;4.652;2023-09-18T00:54:35;20.00;99.90
34837;DHT22;21053;50.848;4.652;2023-09-18T00:57:03;19.70;99.90
34837;DHT22;21053;50.848;4.652;2023-09-18T00:59:29;19.80;99.90
34837;DHT22;21053;50.848;4.652;2023-09-18T01:01:55;19.90;99.90
34837;DHT22;21053;50.848;4.652;2023-09-18T01:04:23;19.70;99.90
34837;DHT22;21053;50.848;4.652;2023-09-18T01:06:53;19.90;99.90
34837;DHT22;21053;50.848;4.652;2023-09-18T01:09:22;20.10;99.90
34837;DHT22;21053;50.848;4.652;2023-09-18T01:17:10;20.20;99.90
34837;DHT22;21053;50.848;4.652;2023-09-18T01:19:40;20.40;99.90
34837;DHT22;21053;50.848;4.652;2023-09-18T01:22:08;20.50;99.90
34837;DHT22;21053;50.848;4.652;2023-09-18T01:24:35;20.50;99.90
34837;DHT22;21053;50.848;4.652;2023-09-18T01:27:02;20.40;99.90
34837;DHT22;21053;50.848;4.652;2023-09-18T01:29:31;20.30;99.90
34837;DHT22;21053;50.848;4.652;2023-09-18T01:31:58;20.50;99.90
34837;DHT22;21053;50.848;4.652;2023-09-18T01:34:39;20.60;99.90
34837;DHT22;21053;50.848;4.652;2023-09-18T01:37:07;20.30;99.90
34837;DHT22;21053;50.848;4.652;2023-09-18T01:39:35;20.10;99.90
34837;DHT22;21053;50.848;4.652;2023-09-18T01:42:05;20.20;99.90
34837;DHT22;21053;50.848;4.652;2023-09-18T01:44:32;20.20;99.90
34837;DHT22;21053;50.848;4.652;2023-09-18T01:47:06;20.40;99.90
34837;DHT22;21053;50.848;4.652;2023-09-18T01:49:33;20.40;99.90
34837;DHT22;21053;50.848;4.652;2023-09-18T01:52:00;20.50;99.90
34837;DHT22;21053;50.848;4.652;2023-09-18T01:54:26;20.60;99.90
34837;DHT22;21053;50.848;4.652;2023-09-18T01:56:53;20.70;99.90
34837;DHT22;21053;50.848;4.652;2023-09-18T01:59:19;20.80;99.90
34837;DHT22;21053;50.848;4.652;2023-09-18T02:01:46;20.80;99.90
34837;DHT22;21053;50.848;4.652;2023-09-18T02:04:14;20.90;99.90
34837;DHT22;21053;50.848;4.652;2023-09-18T02:06:40;20.80;99.90
34837;DHT22;21053;50.848;4.652;2023-09-18T02:09:07;20.90;99.90
34837;DHT22;21053;50.848;4.652;2023-09-18T02:11:43;20.90;99.90
34837;DHT22;21053;50.848;4.652;2023-09-18T02:14:09;20.90;99.90
34837;DHT22;21053;50.848;4.652;2023-09-18T02:16:37;20.60;99.90
34837;DHT22;21053;50.848;4.652;2023-09-18T02:19:05;20.60;99.90
34837;DHT22;21053;50.848;4.652;2023-09-18T02:21:31;20.70;99.90
34837;DHT22;21053;50.848;4.652;2023-09-18T02:23:57;20.80;99.90
34837;DHT22;21053;50.848;4.652;2023-09-18T02:26:24;20.90;99.90
34837;DHT22;21053;50.848;4.652;2023-09-18T02:29:00;20.80;99.90
34837;DHT22;21053;50.848;4.652;2023-09-18T02:31:25;20.70;99.90
34837;DHT22;21053;50.848;4.652;2023-09-18T02:33:52;20.60;99.90
34837;DHT22;21053;50.848;4.652;2023-09-18T02:36:18;20.70;99.90
34837;DHT22;21053;50.848;4.652;2023-09-18T02:38:44;20.70;99.90
34837;DHT22;21053;50.848;4.652;2023-09-18T02:41:10;20.80;99.90
34837;DHT22;21053;50.848;4.652;2023-09-18T02:43:38;20.80;99.90
34837;DHT22;21053;50.848;4.652;2023-09-18T02:46:04;20.70;99.90
34837;DHT22;21053;50.848;4.652;2023-09-18T02:48:34;20.60;99.90
34837;DHT22;21053;50.848;4.652;2023-09-18T02:51:02;20.70;99.90
34837;DHT22;21053;50.848;4.652;2023-09-18T02:53:30;20.80;99.90
34837;DHT22;21053;50.848;4.652;2023-09-18T02:55:58;20.70;99.90
34837;DHT22;21053;50.848;4.652;2023-09-18T02:58:25;20.80;99.90
34837;DHT22;21053;50.848;4.652;2023-09-18T03:00:52;20.50;99.90
34837;DHT22;21053;50.848;4.652;2023-09-18T03:03:33;20.30;99.90
34837;DHT22;21053;50.848;4.652;2023-09-18T03:06:03;20.50;99.90
34837;DHT22;21053;50.848;4.652;2023-09-18T03:08:30;20.60;99.90
34837;DHT22;21053;50.848;4.652;2023-09-18T03:10:56;20.70;99.90
34837;DHT22;21053;50.848;4.652;2023-09-18T03:13:27;20.70;99.90
34837;DHT22;21053;50.848;4.652;2023-09-18T03:15:53;20.60;99.90
34837;DHT22;21053;50.848;4.652;2023-09-18T03:18:19;20.70;99.90
34837;DHT22;21053;50.848;4.652;2023-09-18T03:20:45;20.80;99.90
34837;DHT22;21053;50.848;4.652;2023-09-18T03:23:11;20.80;99.90
34837;DHT22;21053;50.848;4.652;2023-09-18T03:25:37;20.70;99.90
34837;DHT22;21053;50.848;4.652;2023-09-18T03:28:11;20.70;99.90
34837;DHT22;21053;50.848;4.652;2023-09-18T03:30:37;20.70;99.90
34837;DHT22;21053;50.848;4.652;2023-09-18T03:33:03;20.60;99.90
34837;DHT22;21053;50.848;4.652;2023-09-18T03:35:31;20.70;99.90
34837;DHT22;21053;50.848;4.652;2023-09-18T03:37:57;20.70;99.90
34837;DHT22;21053;50.848;4.652;2023-09-18T03:40:23;20.80;99.90
34837;DHT22;21053;50.848;4.652;2023-09-18T03:42:50;20.70;99.90
34837;DHT22;21053;50.848;4.652;2023-09-18T03:45:19;20.60;99.90
34837;DHT22;21053;50.848;4.652;2023-09-18T03:47:46;20.30;99.90
34837;DHT22;21053;50.848;4.652;2023-09-18T03:50:12;20.10;99.90
34837;DHT22;21053;50.848;4.652;2023-09-18T03:52:39;20.10;99.90
34837;DHT22;21053;50.848;4.652;2023-09-18T03:55:06;20.10;99.90
34837;DHT22;21053;50.848;4.652;2023-09-18T03:57:32;20.00;99.90
34837;DHT22;21053;50.848;4.652;2023-09-18T03:59:59;20.00;99.90
34837;DHT22;21053;50.848;4.652;2023-09-18T04:02:25;20.00;99.90
34837;DHT22;21053;50.848;4.652;2023-09-18T04:04:52;20.20;99.90
34837;DHT22;21053;50.848;4.652;2023-09-18T04:07:19;20.30;99.90
34837;DHT22;21053;50.848;4.652;2023-09-18T04:09:47;20.30;99.90
34837;DHT22;21053;50.848;4.652;2023-09-18T04:12:14;20.40;99.90
34837;DHT22;21053;50.848;4.652;2023-09-18T04:14:41;20.10;99.90
34837;DHT22;21053;50.848;4.652;2023-09-18T04:17:07;20.00;99.90
34837;DHT22;21053;50.848;4.652;2023-09-18T04:19:32;19.90;99.90
34837;DHT22;21053;50.848;4.652;2023-09-18T04:21:59;20.00;99.90
34837;DHT22;21053;50.848;4.652;2023-09-18T04:24:25;20.10;99.90
34837;DHT22;21053;50.848;4.652;2023-09-18T04:26:51;19.90;99.90
34837;DHT22;21053;50.848;4.652;2023-09-18T04:29:19;19.90;99.90
34837;DHT22;21053;50.848;4.652;2023-09-18T04:31:46;19.80;99.90
34837;DHT22;21053;50.848;4.652;2023-09-18T04:34:18;19.70;99.90
34837;DHT22;21053;50.848;4.652;2023-09-18T04:36:45;19.60;99.90
34837;DHT22;21053;50.848;4.652;2023-09-18T04:39:11;19.70;99.90
34837;DHT22;21053;50.848;4.652;2023-09-18T04:41:38;19.70;99.90
34837;DHT22;21053;50.848;4.652;2023-09-18T04:44:04;19.50;99.90
34837;DHT22;21053;50.848;4.652;2023-09-18T04:46:33;19.40;99.90
34837;DHT22;21053;50.848;4.652;2023-09-18T04:48:59;19.40;99.90
34837;DHT22;21053;50.848;4.652;2023-09-18T04:51:25;19.40;99.90
34837;DHT22;21053;50.848;4.652;2023-09-18T04:53:52;19.50;99.90
34837;DHT22;21053;50.848;4.652;2023-09-18T04:56:20;19.40;99.90
34837;DHT22;21053;50.848;4.652;2023-09-18T04:58:46;19.60;99.90
34837;DHT22;21053;50.848;4.652;2023-09-18T05:01:12;19.60;99.90
34837;DHT22;21053;50.848;4.652;2023-09-18T05:03:39;19.70;99.90
34837;DHT22;21053;50.848;4.652;2023-09-18T05:06:06;19.70;99.90
34837;DHT22;21053;50.848;4.652;2023-09-18T05:08:35;19.60;99.90
34837;DHT22;21053;50.848;4.652;2023-09-18T05:11:01;19.70;99.90
34837;DHT22;21053;50.848;4.652;2023-09-18T05:13:30;19.60;99.90
34837;DHT22;21053;50.848;4.652;2023-09-18T05:15:57;19.60;99.90
34837;DHT22;21053;50.848;4.652;2023-09-18T05:18:27;19.60;99.90
34837;DHT22;21053;50.848;4.652;2023-09-18T05:20:53;19.60;99.90
34837;DHT22;21053;50.848;4.652;2023-09-18T05:23:19;19.60;99.90
34837;DHT22;21053;50.848;4.652;2023-09-18T05:25:46;19.60;99.90
34837;DHT22;21053;50.848;4.652;2023-09-18T05:28:12;19.60;99.90
34837;DHT22;21053;50.848;4.652;2023-09-18T05:30:37;19.50;99.90
34837;DHT22;21053;50.848;4.652;2023-09-18T05:33:07;19.60;99.90
34837;DHT22;21053;50.848;4.652;2023-09-18T05:35:35;19.70;99.90
34837;DHT22;21053;50.848;4.652;2023-09-18T05:38:03;19.60;99.90
34837;DHT22;21053;50.848;4.652;2023-09-18T05:40:30;19.50;99.90
34837;DHT22;21053;50.848;4.652;2023-09-18T05:42:56;19.40;99.90
34837;DHT22;21053;50.848;4.652;2023-09-18T05:45:25;19.50;99.90
34837;DHT22;21053;50.848;4.652;2023-09-18T05:47:52;19.40;99.90
34837;DHT22;21053;50.848;4.652;2023-09-18T05:50:28;19.20;99.90
34837;DHT22;21053;50.848;4.652;2023-09-18T05:52:55;19.20;99.90
34837;DHT22;21053;50.848;4.652;2023-09-18T05:55:25;19.10;99.90
34837;DHT22;21053;50.848;4.652;2023-09-18T05:57:51;19.30;99.90
34837;DHT22;21053;50.848;4.652;2023-09-18T06:00:17;19.40;99.90
34837;DHT22;21053;50.848;4.652;2023-09-18T06:02:44;19.30;99.90
34837;DHT22;21053;50.848;4.652;2023-09-18T06:05:11;19.30;99.90
34837;DHT22;21053;50.848;4.652;2023-09-18T06:07:39;19.40;99.90
34837;DHT22;21053;50.848;4.652;2023-09-18T06:10:05;19.40;99.90
34837;DHT22;21053;50.848;4.652;2023-09-18T06:12:34;19.40;99.90
34837;DHT22;21053;50.848;4.652;2023-09-18T06:15:03;19.40;99.90
34837;DHT22;21053;50.848;4.652;2023-09-18T06:17:29;19.30;99.90
34837;DHT22;21053;50.848;4.652;2023-09-18T06:19:55;19.20;99.90
34837;DHT22;21053;50.848;4.652;2023-09-18T06:22:21;19.20;99.90
34837;DHT22;21053;50.848;4.652;2023-09-18T06:24:46;19.30;99.90
34837;DHT22;21053;50.848;4.652;2023-09-18T06:27:12;19.40;99.90
34837;DHT22;21053;50.848;4.652;2023-09-18T06:29:40;19.40;99.90
34837;DHT22;21053;50.848;4.652;2023-09-18T06:32:11;19.50;99.90
34837;DHT22;21053;50.848;4.652;2023-09-18T06:34:37;19.50;99.90
34837;DHT22;21053;50.848;4.652;2023-09-18T06:37:03;19.30;99.90
34837;DHT22;21053;50.848;4.652;2023-09-18T06:39:29;19.40;99.90
34837;DHT22;21053;50.848;4.652;2023-09-18T06:41:55;19.50;99.90
34837;DHT22;21053;50.848;4.652;2023-09-18T06:44:21;19.40;99.90
34837;DHT22;21053;50.848;4.652;2023-09-18T06:46:49;19.30;99.90
34837;DHT22;21053;50.848;4.652;2023-09-18T06:49:15;19.40;99.90
34837;DHT22;21053;50.848;4.652;2023-09-18T06:51:41;19.50;99.90
34837;DHT22;21053;50.848;4.652;2023-09-18T06:54:07;19.60;99.90
34837;DHT22;21053;50.848;4.652;2023-09-18T06:56:32;19.40;99.90
34837;DHT22;21053;50.848;4.652;2023-09-18T06:58:58;19.50;99.90
34837;DHT22;21053;50.848;4.652;2023-09-18T07:01:24;19.60;99.90
34837;DHT22;21053;50.848;4.652;2023-09-18T07:03:51;19.30;99.90
34837;DHT22;21053;50.848;4.652;2023-09-18T07:06:17;19.40;99.90
34837;DHT22;21053;50.848;4.652;2023-09-18T07:08:46;19.40;99.90
34837;DHT22;21053;50.848;4.652;2023-09-18T07:11:15;19.40;99.90
34837;DHT22;21053;50.848;4.652;2023-09-18T07:13:42;19.50;99.90
34837;DHT22;21053;50.848;4.652;2023-09-18T07:16:09;19.50;99.90
34837;DHT22;21053;50.848;4.652;2023-09-18T07:18:35;19.60;99.90
34837;DHT22;21053;50.848;4.652;2023-09-18T07:21:02;19.60;99.90
34837;DHT22;21053;50.848;4.652;2023-09-18T07:23:27;19.50;99.90
34837;DHT22;21053;50.848;4.652;2023-09-18T07:25:53;19.50;99.90
34837;DHT22;21053;50.848;4.652;2023-09-18T07:28:19;19.50;99.90
34837;DHT22;21053;50.848;4.652;2023-09-18T07:33:12;19.50;99.90
34837;DHT22;21053;50.848;4.652;2023-09-18T07:35:39;19.50;99.90
34837;DHT22;21053;50.848;4.652;2023-09-18T07:38:05;19.40;99.90
34837;DHT22;21053;50.848;4.652;2023-09-18T07:40:31;19.50;99.90
34837;DHT22;21053;50.848;4.652;2023-09-18T07:42:57;19.70;99.90
34837;DHT22;21053;50.848;4.652;2023-09-18T07:45:25;20.00;99.90
34837;DHT22;21053;50.848;4.652;2023-09-18T07:47:52;20.60;99.90
34837;DHT22;21053;50.848;4.652;2023-09-18T07:50:18;20.50;99.90
34837;DHT22;21053;50.848;4.652;2023-09-18T07:52:44;20.90;99.90
34837;DHT22;21053;50.848;4.652;2023-09-18T07:55:10;21.10;99.90
34837;DHT22;21053;50.848;4.652;2023-09-18T07:57:37;20.70;99.90
34837;DHT22;21053;50.848;4.652;2023-09-18T08:00:04;21.00;99.90
34837;DHT22;21053;50.848;4.652;2023-09-18T08:02:38;20.70;99.90
34837;DHT22;21053;50.848;4.652;2023-09-18T08:05:05;20.40;99.90
34837;DHT22;21053;50.848;4.652;2023-09-18T08:07:33;20.20;99.90
34837;DHT22;21053;50.848;4.652;2023-09-18T08:09:58;20.30;99.90
34837;DHT22;21053;50.848;4.652;2023-09-18T08:12:24;20.30;99.90
34837;DHT22;21053;50.848;4.652;2023-09-18T08:14:51;20.30;99.90
34837;DHT22;21053;50.848;4.652;2023-09-18T08:17:17;20.50;99.90
34837;DHT22;21053;50.848;4.652;2023-09-18T08:19:43;20.60;99.90
34837;DHT22;21053;50.848;4.652;2023-09-18T08:22:10;20.70;99.90
34837;DHT22;21053;50.848;4.652;2023-09-18T08:24:40;20.90;99.90
34837;DHT22;21053;50.848;4.652;2023-09-18T08:27:06;21.10;99.90
34837;DHT22;21053;50.848;4.652;2023-09-18T08:29:32;21.40;99.90
34837;DHT22;21053;50.848;4.652;2023-09-18T08:31:58;21.70;99.90
34837;DHT22;21053;50.848;4.652;2023-09-18T08:34:23;22.10;99.90
34837;DHT22;21053;50.848;4.652;2023-09-18T08:36:50;21.90;99.90
34837;DHT22;21053;50.848;4.652;2023-09-18T08:39:16;21.80;99.90
34837;DHT22;21053;50.848;4.652;2023-09-18T08:41:43;21.60;99.90
34837;DHT22;21053;50.848;4.652;2023-09-18T08:44:09;21.70;99.90
34837;DHT22;21053;50.848;4.652;2023-09-18T08:46:36;21.30;99.90
34837;DHT22;21053;50.848;4.652;2023-09-18T08:49:04;21.30;99.90
34837;DHT22;21053;50.848;4.652;2023-09-18T08:51:31;21.30;99.90
34837;DHT22;21053;50.848;4.652;2023-09-18T08:53:59;21.30;99.90
34837;DHT22;21053;50.848;4.652;2023-09-18T08:56:27;21.30;99.90
34837;DHT22;21053;50.848;4.652;2023-09-18T08:58:54;21.40;99.90
34837;DHT22;21053;50.848;4.652;2023-09-18T09:01:19;21.30;99.90
34837;DHT22;21053;50.848;4.652;2023-09-18T09:03:46;21.10;99.90
34837;DHT22;21053;50.848;4.652;2023-09-18T09:06:12;21.10;99.90
34837;DHT22;21053;50.848;4.652;2023-09-18T09:08:38;20.80;99.90
34837;DHT22;21053;50.848;4.652;2023-09-18T09:11:05;20.90;99.90
34837;DHT22;21053;50.848;4.652;2023-09-18T09:13:31;20.90;99.90
34837;DHT22;21053;50.848;4.652;2023-09-18T09:15:58;21.00;99.90
34837;DHT22;21053;50.848;4.652;2023-09-18T09:18:26;21.00;99.90
34837;DHT22;21053;50.848;4.652;2023-09-18T09:21:02;21.00;99.90
34837;DHT22;21053;50.848;4.652;2023-09-18T09:23:52;20.90;99.90
34837;DHT22;21053;50.848;4.652;2023-09-18T09:26:20;21.00;99.90
34837;DHT22;21053;50.848;4.652;2023-09-18T09:28:47;21.00;99.90
34837;DHT22;21053;50.848;4.652;2023-09-18T09:31:25;21.20;99.90
34837;DHT22;21053;50.848;4.652;2023-09-18T09:33:53;21.20;99.90
34837;DHT22;21053;50.848;4.652;2023-09-18T09:36:20;21.30;99.90
34837;DHT22;21053;50.848;4.652;2023-09-18T09:38:46;21.40;99.90
34837;DHT22;21053;50.848;4.652;2023-09-18T09:41:15;21.40;99.90
34837;DHT22;21053;50.848;4.652;2023-09-18T09:43:43;21.60;99.90
34837;DHT22;21053;50.848;4.652;2023-09-18T09:46:19;21.70;99.90
34837;DHT22;21053;50.848;4.652;2023-09-18T09:49:04;21.80;99.90
34837;DHT22;21053;50.848;4.652;2023-09-18T09:51:32;21.80;99.90
34837;DHT22;21053;50.848;4.652;2023-09-18T09:53:59;21.90;99.90
34837;DHT22;21053;50.848;4.652;2023-09-18T09:56:44;22.00;99.90
34837;DHT22;21053;50.848;4.652;2023-09-18T09:59:11;22.00;99.90
34837;DHT22;21053;50.848;4.652;2023-09-18T10:01:38;22.70;99.90
34837;DHT22;21053;50.848;4.652;2023-09-18T10:04:09;23.00;99.90
34837;DHT22;21053;50.848;4.652;2023-09-18T10:06:36;22.80;99.90
34837;DHT22;21053;50.848;4.652;2023-09-18T10:09:03;22.50;99.90
34837;DHT22;21053;50.848;4.652;2023-09-18T10:11:34;22.40;99.90
34837;DHT22;21053;50.848;4.652;2023-09-18T10:14:09;22.00;99.90
34837;DHT22;21053;50.848;4.652;2023-09-18T10:16:40;21.80;99.90
34837;DHT22;21053;50.848;4.652;2023-09-18T10:19:09;21.70;99.90
34837;DHT22;21053;50.848;4.652;2023-09-18T10:21:46;21.70;99.90
34837;DHT22;21053;50.848;4.652;2023-09-18T10:24:24;21.70;99.90
34837;DHT22;21053;50.848;4.652;2023-09-18T10:26:58;22.20;99.90
34837;DHT22;21053;50.848;4.652;2023-09-18T10:29:25;22.90;99.90
34837;DHT22;21053;50.848;4.652;2023-09-18T10:31:52;23.10;99.90
34837;DHT22;21053;50.848;4.652;2023-09-18T10:34:25;23.40;99.90
34837;DHT22;21053;50.848;4.652;2023-09-18T10:36:52;23.60;99.90
34837;DHT22;21053;50.848;4.652;2023-09-18T10:39:18;23.70;99.90
34837;DHT22;21053;50.848;4.652;2023-09-18T10:41:51;23.30;99.90
34837;DHT22;21053;50.848;4.652;2023-09-18T10:44:18;23.80;99.90
34837;DHT22;21053;50.848;4.652;2023-09-18T10:46:48;24.20;99.90
34837;DHT22;21053;50.848;4.652;2023-09-18T10:49:15;24.10;99.90
34837;DHT22;21053;50.848;4.652;2023-09-18T10:51:41;24.60;99.90
34837;DHT22;21053;50.848;4.652;2023-09-18T10:54:14;25.00;99.90
34837;DHT22;21053;50.848;4.652;2023-09-18T10:56:43;24.80;99.90
34837;DHT22;21053;50.848;4.652;2023-09-18T10:59:11;24.70;99.90
34837;DHT22;21053;50.848;4.652;2023-09-18T11:01:36;25.00;99.90
34837;DHT22;21053;50.848;4.652;2023-09-18T11:04:06;25.30;99.90
34837;DHT22;21053;50.848;4.652;2023-09-18T11:09:31;25.70;99.90
34837;DHT22;21053;50.848;4.652;2023-09-18T11:17:40;24.30;99.90
34837;DHT22;21053;50.848;4.652;2023-09-18T11:20:17;24.20;99.90
34837;DHT22;21053;50.848;4.652;2023-09-18T11:23:10;24.30;99.90
34837;DHT22;21053;50.848;4.652;2023-09-18T11:25:41;24.50;99.90
34837;DHT22;21053;50.848;4.652;2023-09-18T11:28:23;24.80;99.90
34837;DHT22;21053;50.848;4.652;2023-09-18T11:30:58;25.00;99.90
34837;DHT22;21053;50.848;4.652;2023-09-18T11:33:33;24.90;99.90
34837;DHT22;21053;50.848;4.652;2023-09-18T11:38:32;25.30;99.90
34837;DHT22;21053;50.848;4.652;2023-09-18T11:41:00;25.70;99.90
34837;DHT22;21053;50.848;4.652;2023-09-18T11:43:28;26.10;99.90
34837;DHT22;21053;50.848;4.652;2023-09-18T11:46:01;26.30;99.40
34837;DHT22;21053;50.848;4.652;2023-09-18T11:48:29;25.40;99.90
34837;DHT22;21053;50.848;4.652;2023-09-18T11:50:59;25.20;99.90
34837;DHT22;21053;50.848;4.652;2023-09-18T11:53:27;24.90;99.90
34837;DHT22;21053;50.848;4.652;2023-09-18T11:55:53;24.30;99.90
34837;DHT22;21053;50.848;4.652;2023-09-18T11:58:19;23.90;99.90
34837;DHT22;21053;50.848;4.652;2023-09-18T12:00:53;23.60;99.90
34837;DHT22;21053;50.848;4.652;2023-09-18T12:03:21;23.90;99.90
34837;DHT22;21053;50.848;4.652;2023-09-18T12:06:01;24.30;99.90
34837;DHT22;21053;50.848;4.652;2023-09-18T12:08:29;24.50;99.90
34837;DHT22;21053;50.848;4.652;2023-09-18T12:10:56;24.90;99.90
34837;DHT22;21053;50.848;4.652;2023-09-18T12:13:27;25.20;99.90
34837;DHT22;21053;50.848;4.652;2023-09-18T12:15:57;25.10;99.90
34837;DHT22;21053;50.848;4.652;2023-09-18T12:18:24;25.40;99.90
34837;DHT22;21053;50.848;4.652;2023-09-18T12:20:51;25.30;99.90
34837;DHT22;21053;50.848;4.652;2023-09-18T12:23:17;25.70;99.90
34837;DHT22;21053;50.848;4.652;2023-09-18T12:25:48;26.10;99.90
34837;DHT22;21053;50.848;4.652;2023-09-18T12:28:15;25.50;99.90
34837;DHT22;21053;50.848;4.652;2023-09-18T12:30:42;25.90;98.60
34837;DHT22;21053;50.848;4.652;2023-09-18T12:33:08;26.00;98.50
34837;DHT22;21053;50.848;4.652;2023-09-18T12:35:34;25.90;98.60
34837;DHT22;21053;50.848;4.652;2023-09-18T12:38:01;25.90;99.90
34837;DHT22;21053;50.848;4.652;2023-09-18T12:40:30;26.00;99.20
34837;DHT22;21053;50.848;4.652;2023-09-18T12:42:59;26.00;98.00
34837;DHT22;21053;50.848;4.652;2023-09-18T12:45:28;26.00;98.90
34837;DHT22;21053;50.848;4.652;2023-09-18T12:47:57;26.30;99.70
34837;DHT22;21053;50.848;4.652;2023-09-18T12:50:24;26.50;99.30
34837;DHT22;21053;50.848;4.652;2023-09-18T12:52:50;26.80;98.70
34837;DHT22;21053;50.848;4.652;2023-09-18T12:55:26;27.00;98.00
34837;DHT22;21053;50.848;4.652;2023-09-18T12:57:53;26.70;96.20
34837;DHT22;21053;50.848;4.652;2023-09-18T13:00:20;26.40;98.20
34837;DHT22;21053;50.848;4.652;2023-09-18T13:02:53;26.60;98.30
34837;DHT22;21053;50.848;4.652;2023-09-18T13:05:24;26.70;97.40
34837;DHT22;21053;50.848;4.652;2023-09-18T13:07:54;26.80;96.90
34837;DHT22;21053;50.848;4.652;2023-09-18T13:10:21;26.60;95.30
34837;DHT22;21053;50.848;4.652;2023-09-18T13:12:51;26.50;97.50
34837;DHT22;21053;50.848;4.652;2023-09-18T13:15:31;26.30;95.90
34837;DHT22;21053;50.848;4.652;2023-09-18T13:17:59;26.30;95.40
34837;DHT22;21053;50.848;4.652;2023-09-18T13:20:27;26.40;96.40
34837;DHT22;21053;50.848;4.652;2023-09-18T13:22:58;26.40;96.10
34837;DHT22;21053;50.848;4.652;2023-09-18T13:25:30;26.40;94.50
34837;DHT22;21053;50.848;4.652;2023-09-18T13:27:56;26.40;95.50
34837;DHT22;21053;50.848;4.652;2023-09-18T13:30:22;26.40;94.10
34837;DHT22;21053;50.848;4.652;2023-09-18T13:32:49;26.30;96.00
34837;DHT22;21053;50.848;4.652;2023-09-18T13:35:17;26.30;95.30
34837;DHT22;21053;50.848;4.652;2023-09-18T13:37:44;26.30;94.50
34837;DHT22;21053;50.848;4.652;2023-09-18T13:40:10;26.10;93.80
34837;DHT22;21053;50.848;4.652;2023-09-18T13:42:39;25.70;95.20
34837;DHT22;21053;50.848;4.652;2023-09-18T13:45:06;25.70;95.60
34837;DHT22;21053;50.848;4.652;2023-09-18T13:47:35;25.60;95.30
34837;DHT22;21053;50.848;4.652;2023-09-18T13:50:04;25.70;95.20
34837;DHT22;21053;50.848;4.652;2023-09-18T13:52:34;25.70;95.50
34837;DHT22;21053;50.848;4.652;2023-09-18T13:55:02;25.80;95.40
34837;DHT22;21053;50.848;4.652;2023-09-18T13:57:32;25.70;94.00
34837;DHT22;21053;50.848;4.652;2023-09-18T14:00:03;25.60;93.20
34837;DHT22;21053;50.848;4.652;2023-09-18T14:02:37;25.60;94.80
34837;DHT22;21053;50.848;4.652;2023-09-18T14:05:03;25.60;95.60
34837;DHT22;21053;50.848;4.652;2023-09-18T14:07:30;25.80;94.80
34837;DHT22;21053;50.848;4.652;2023-09-18T14:09:56;25.80;95.20
34837;DHT22;21053;50.848;4.652;2023-09-18T14:12:22;25.90;94.50
34837;DHT22;21053;50.848;4.652;2023-09-18T14:14:48;26.00;94.30
34837;DHT22;21053;50.848;4.652;2023-09-18T14:17:14;25.90;93.50
34837;DHT22;21053;50.848;4.652;2023-09-18T14:19:43;25.90;93.80
34837;DHT22;21053;50.848;4.652;2023-09-18T14:22:10;26.00;94.00
34837;DHT22;21053;50.848;4.652;2023-09-18T14:24:37;26.10;95.10
34837;DHT22;21053;50.848;4.652;2023-09-18T14:27:03;26.10;93.50
34837;DHT22;21053;50.848;4.652;2023-09-18T14:29:30;26.00;93.80
34837;DHT22;21053;50.848;4.652;2023-09-18T14:32:01;25.80;94.30
34837;DHT22;21053;50.848;4.652;2023-09-18T14:34:28;25.70;93.90
34837;DHT22;21053;50.848;4.652;2023-09-18T14:36:56;25.50;94.00
34837;DHT22;21053;50.848;4.652;2023-09-18T14:39:22;25.40;94.60
34837;DHT22;21053;50.848;4.652;2023-09-18T14:41:47;25.10;93.60
34837;DHT22;21053;50.848;4.652;2023-09-18T14:44:13;25.00;93.40
34837;DHT22;21053;50.848;4.652;2023-09-18T14:46:39;24.80;94.90
34837;DHT22;21053;50.848;4.652;2023-09-18T14:49:06;24.70;95.00
34837;DHT22;21053;50.848;4.652;2023-09-18T14:51:33;24.60;94.60
34837;DHT22;21053;50.848;4.652;2023-09-18T14:54:00;24.40;95.10
34837;DHT22;21053;50.848;4.652;2023-09-18T14:56:26;24.50;95.90
34837;DHT22;21053;50.848;4.652;2023-09-18T14:58:53;24.30;96.20
34837;DHT22;21053;50.848;4.652;2023-09-18T15:01:23;24.50;96.60
34837;DHT22;21053;50.848;4.652;2023-09-18T15:03:53;24.40;95.80
34837;DHT22;21053;50.848;4.652;2023-09-18T15:06:18;24.20;96.10
34837;DHT22;21053;50.848;4.652;2023-09-18T15:08:44;24.00;97.30
34837;DHT22;21053;50.848;4.652;2023-09-18T15:11:11;23.80;98.50
34837;DHT22;21053;50.848;4.652;2023-09-18T15:13:39;23.50;99.90
34837;DHT22;21053;50.848;4.652;2023-09-18T15:16:05;22.70;99.90
34837;DHT22;21053;50.848;4.652;2023-09-18T15:18:34;22.00;99.90
34837;DHT22;21053;50.848;4.652;2023-09-18T15:21:04;21.60;99.90
34837;DHT22;21053;50.848;4.652;2023-09-18T15:23:29;21.60;99.90
34837;DHT22;21053;50.848;4.652;2023-09-18T15:25:57;21.40;99.90
34837;DHT22;21053;50.848;4.652;2023-09-18T15:28:23;21.40;99.90
34837;DHT22;21053;50.848;4.652;2023-09-18T15:30:53;21.30;99.90
34837;DHT22;21053;50.848;4.652;2023-09-18T15:33:20;21.00;99.90
34837;DHT22;21053;50.848;4.652;2023-09-18T15:35:52;20.80;99.90
34837;DHT22;21053;50.848;4.652;2023-09-18T15:38:21;20.80;99.90
34837;DHT22;21053;50.848;4.652;2023-09-18T15:40:49;20.80;99.90
34837;DHT22;21053;50.848;4.652;2023-09-18T15:43:18;20.90;99.90
34837;DHT22;21053;50.848;4.652;2023-09-18T15:45:47;20.90;99.90
34837;DHT22;21053;50.848;4.652;2023-09-18T15:48:14;20.90;99.90
34837;DHT22;21053;50.848;4.652;2023-09-18T15:50:43;21.00;99.90
34837;DHT22;21053;50.848;4.652;2023-09-18T15:53:10;21.10;99.90